^^
Datos históricos de la estación: Murcia-Puente Tocinos
Diario Informe para Mayo 01, 2021 Unidades:  Métrico    Ingés   Ambas
Diario Semanal Mensual Anual
  Máxima: Mínima: Promedio:
Temperatura: 23.6 °C 15.9 °C 19.4 °C
Punto de rocio: 13.7 °C 5 °C 9.4 °C
Humedad: 82% 31% 56%
Velocidad viento: 17.2km/h 2.2km/h 7.7km/h
Racha viento: 30.6km/h - -
Viento- - SSO
Presión: 1012.7 hPa 1007.8 hPa -
Precipitación: 0.0 mm    
 
 
Tabla de datos para Mayo 01, 2021
Hora Temperatura Punto de rocio Presión Viento Velocidad viento Racha viento Humedad Intensidad lluvia(por hora) Nubes
00:04 17.1 °C 13.2 °C 1008.8 hPa OSO 5.8 km/h 9.7 km/h 78% 0.0 mm
00:09 17.1 °C 13.2 °C 1008.8 hPa OSO 5.2 km/h 9.7 km/h 78% 0.0 mm
00:14 17 °C 13.2 °C 1008.8 hPa OSO 5 km/h 8 km/h 78.3% 0.0 mm
00:19 17 °C 13.3 °C 1008.6 hPa SO 3.7 km/h 5.8 km/h 78.9% 0.0 mm
00:24 16.9 °C 13.1 °C 1008.6 hPa SSO 3.2 km/h 6.4 km/h 78.2% 0.0 mm
00:29 16.9 °C 13.3 °C 1008.6 hPa ESE 3.2 km/h 9.5 km/h 79% 0.0 mm
00:34 16.9 °C 13.4 °C 1008.4 hPa ESE 3.2 km/h 9.7 km/h 79.9% 0.0 mm
00:39 16.8 °C 13.5 °C 1008.4 hPa ESE 5.7 km/h 9.7 km/h 81.1% 0.0 mm
00:44 16.8 °C 13.7 °C 1008.4 hPa ESE 6.5 km/h 9.7 km/h 82% 0.0 mm
00:49 16.7 °C 13.6 °C 1008.4 hPa SE 6 km/h 9.7 km/h 82% 0.0 mm
00:54 16.6 °C 13.5 °C 1008.4 hPa ESE 5.8 km/h 9.7 km/h 82% 0.0 mm
00:59 16.6 °C 13.4 °C 1008.4 hPa SE 5.2 km/h 8.4 km/h 81.2% 0.0 mm
01:04 16.6 °C 13.3 °C 1008.4 hPa SSE 5 km/h 8 km/h 80.6% 0.0 mm
01:09 16.6 °C 13.2 °C 1008.4 hPa SSE 5 km/h 8 km/h 80.3% 0.0 mm
01:14 16.6 °C 13.1 °C 1008.4 hPa Sur 5 km/h 8 km/h 80% 0.0 mm
01:19 16.6 °C 13.1 °C 1008.4 hPa SSO 4.1 km/h 8.7 km/h 80% 0.0 mm
01:24 16.7 °C 13.2 °C 1008.4 hPa SO 3.9 km/h 9.7 km/h 80% 0.0 mm
01:29 16.7 °C 13.2 °C 1008.5 hPa SO 4.4 km/h 9.7 km/h 80% 0.0 mm
01:34 16.8 °C 13.4 °C 1008.5 hPa SO 4.7 km/h 6.4 km/h 80.7% 0.0 mm
01:39 16.8 °C 13.5 °C 1008.5 hPa ESE 4 km/h 9.5 km/h 81% 0.0 mm
01:44 16.8 °C 13.4 °C 1008.5 hPa ESE 3.9 km/h 9.7 km/h 80.3% 0.0 mm
01:49 16.8 °C 13.3 °C 1008.1 hPa Sur 4.6 km/h 9.7 km/h 80% 0.0 mm
01:54 16.8 °C 13.3 °C 1008.1 hPa SSE 5 km/h 8.4 km/h 80% 0.0 mm
01:59 16.8 °C 13.3 °C 1008.2 hPa SSE 5.6 km/h 8 km/h 80% 0.0 mm
02:04 16.8 °C 13.3 °C 1008.2 hPa SE 5.8 km/h 8 km/h 80% 0.0 mm
02:09 16.8 °C 13.3 °C 1008.2 hPa SE 5 km/h 9.5 km/h 79.7% 0.0 mm
02:14 16.8 °C 13.2 °C 1008.2 hPa SSE 4.7 km/h 13 km/h 79.5% 0.0 mm
02:19 16.8 °C 13.3 °C 1008.2 hPa Sur 6.4 km/h 12.9 km/h 80% 0.0 mm
02:24 16.7 °C 13.2 °C 1008.2 hPa Sur 6.9 km/h 11.3 km/h 80% 0.0 mm
02:29 16.7 °C 13.1 °C 1008.3 hPa SSO 6 km/h 11.3 km/h 79.6% 0.0 mm
02:34 16.6 °C 12.9 °C 1008.3 hPa Sur 5.8 km/h 8 km/h 79% 0.0 mm
02:39 16.6 °C 12.9 °C 1008.3 hPa Sur 5.2 km/h 8.4 km/h 79% 0.0 mm
02:44 16.6 °C 13 °C 1008.3 hPa Sur 5 km/h 8 km/h 79% 0.0 mm
02:49 16.7 °C 12.9 °C 1008.3 hPa Sur 4.2 km/h 8 km/h 78.5% 0.0 mm
02:54 16.7 °C 12.8 °C 1008.3 hPa Sur 3.9 km/h 8 km/h 78% 0.0 mm
02:59 16.7 °C 12.8 °C 1008.3 hPa Sur 4.4 km/h 11.1 km/h 78% 0.0 mm
03:04 16.7 °C 12.8 °C 1008.3 hPa SSO 4.6 km/h 11.3 km/h 78% 0.0 mm
03:09 16.7 °C 12.8 °C 1008.3 hPa SSO 5.5 km/h 10 km/h 78% 0.0 mm
03:14 16.8 °C 12.9 °C 1008.3 hPa SSO 5.8 km/h 9.7 km/h 78% 0.0 mm
03:19 16.7 °C 12.7 °C 1008.1 hPa SO 5.1 km/h 11.1 km/h 77.1% 0.0 mm
03:24 16.7 °C 12.6 °C 1008.1 hPa SO 5 km/h 10 km/h 76.6% 0.0 mm
03:29 16.7 °C 12.4 °C 1008.1 hPa SO 5.6 km/h 9.3 km/h 76% 0.0 mm
03:34 16.7 °C 12.4 °C 1007.9 hPa SO 5.8 km/h 9.7 km/h 76% 0.0 mm
03:39 16.7 °C 12.3 °C 1007.9 hPa SSO 5.2 km/h 10 km/h 75% 0.0 mm
03:44 16.8 °C 12.2 °C 1008.0 hPa SO 5 km/h 9.7 km/h 74.5% 0.0 mm
03:49 16.8 °C 12 °C 1008.0 hPa SSO 5.6 km/h 10.3 km/h 73.6% 0.0 mm
03:54 16.8 °C 11.8 °C 1008.0 hPa SSO 5.8 km/h 11.3 km/h 72.4% 0.0 mm
03:59 16.8 °C 11.6 °C 1008.0 hPa SO 6.6 km/h 11.3 km/h 71.3% 0.0 mm
04:04 16.9 °C 11.6 °C 1007.8 hPa SO 6.9 km/h 11.1 km/h 71% 0.0 mm
04:09 16.9 °C 11.6 °C 1007.8 hPa SO 6.6 km/h 11.3 km/h 71% 0.0 mm
04:14 16.9 °C 11.7 °C 1007.9 hPa OSO 6.5 km/h 9.7 km/h 71.4% 0.0 mm
04:19 16.9 °C 11.9 °C 1007.9 hPa OSO 4.7 km/h 8.4 km/h 72.2% 0.0 mm
04:24 16.9 °C 12 °C 1007.9 hPa OSO 3.9 km/h 8 km/h 73% 0.0 mm
04:29 16.8 °C 12.1 °C 1007.9 hPa OSO 3.9 km/h 8 km/h 73.8% 0.0 mm
04:34 16.8 °C 12.1 °C 1007.9 hPa OSO 3.9 km/h 8 km/h 74% 0.0 mm
04:39 16.7 °C 12.1 °C 1007.9 hPa SO 4.7 km/h 9.3 km/h 74.3% 0.0 mm
04:44 16.6 °C 12.1 °C 1008.2 hPa SO 5 km/h 10 km/h 74.8% 0.0 mm
04:49 16.6 °C 12.2 °C 1008.2 hPa OSO 5.6 km/h 9.7 km/h 75% 0.0 mm
04:54 16.7 °C 12.2 °C 1008.2 hPa OSO 5.8 km/h 10 km/h 75% 0.0 mm
04:59 16.6 °C 12.2 °C 1008.2 hPa SO 5.8 km/h 11.9 km/h 75% 0.0 mm
05:04 16.6 °C 12.2 °C 1007.9 hPa SO 5.8 km/h 13 km/h 75.5% 0.0 mm
05:09 16.6 °C 12.3 °C 1007.9 hPa SO 6.7 km/h 13 km/h 76% 0.0 mm
05:14 16.6 °C 12.3 °C 1008.0 hPa SO 6.9 km/h 16.4 km/h 75.7% 0.0 mm
05:19 16.6 °C 12.2 °C 1008.0 hPa SO 8.2 km/h 16.7 km/h 75.1% 0.0 mm
05:24 16.7 °C 12.3 °C 1008.0 hPa OSO 8.7 km/h 16.1 km/h 75.4% 0.0 mm
05:29 16.6 °C 12.2 °C 1008.0 hPa OSO 7.1 km/h 11.3 km/h 75% 0.0 mm
05:34 16.6 °C 12.2 °C 1008.0 hPa SO 6.5 km/h 11.3 km/h 75% 0.0 mm
05:39 16.6 °C 12.2 °C 1008.0 hPa SO 4.6 km/h 8.4 km/h 75% 0.0 mm
05:44 16.6 °C 12.2 °C 1008.0 hPa SSO 3.9 km/h 8 km/h 75% 0.0 mm
05:49 16.6 °C 12.1 °C 1007.9 hPa SSO 3.4 km/h 6.4 km/h 75% 0.0 mm
05:54 16.5 °C 12.1 °C 1007.9 hPa SSO 3.2 km/h 4.8 km/h 75% 0.0 mm
05:59 16.5 °C 12.3 °C 1008.1 hPa SSO 2.5 km/h 6.9 km/h 76.3% 0.0 mm
06:04 16.5 °C 12.5 °C 1008.1 hPa SSO 2.2 km/h 8 km/h 77.4% 0.0 mm
06:09 16.4 °C 12.4 °C 1008.1 hPa Oeste 2.9 km/h 8 km/h 77.3% 0.0 mm
06:14 16.3 °C 12.3 °C 1008.4 hPa ONO 3.2 km/h 8 km/h 77% 0.0 mm
06:19 16.3 °C 12.3 °C 1008.4 hPa Oeste 4.3 km/h 8 km/h 77% 0.0 mm
06:24 16.3 °C 12.3 °C 1008.4 hPa Oeste 4.7 km/h 8 km/h 77% 0.0 mm
06:29 16.3 °C 12.3 °C 1008.6 hPa OSO 3.5 km/h 8 km/h 76.9% 0.0 mm
06:34 16.3 °C 12 °C 1008.6 hPa SSO 3.2 km/h 8 km/h 76% 0.0 mm
06:39 16.3 °C 12.1 °C 1008.6 hPa Sur 4.2 km/h 8 km/h 76% 0.0 mm
06:44 16.3 °C 12.1 °C 1008.6 hPa Sur 4.6 km/h 8 km/h 76% 0.0 mm
06:49 16.4 °C 12.2 °C 1008.6 hPa Sur 4.1 km/h 6.4 km/h 76.4% 0.0 mm
06:54 16.4 °C 12.5 °C 1008.6 hPa SSE 3.9 km/h 7.6 km/h 77.6% 0.0 mm
06:59 16.4 °C 12.6 °C 1008.7 hPa SE 3.9 km/h 11.9 km/h 78% 0.0 mm
07:04 16.3 °C 12.6 °C 1008.7 hPa SE 3.9 km/h 11.9 km/h 79% 0.0 mm
07:09 16.1 °C 12.6 °C 1008.7 hPa SSE 6.2 km/h 11.3 km/h 79.8% 0.0 mm
07:14 15.9 °C 12.5 °C 1008.9 hPa SSE 6.9 km/h 13 km/h 80% 0.0 mm
07:19 15.9 °C 12.4 °C 1008.9 hPa SSE 7.4 km/h 12.9 km/h 80% 0.0 mm
07:24 15.9 °C 12.4 °C 1008.9 hPa SSE 7.6 km/h 11.3 km/h 80% 0.0 mm
07:29 15.9 °C 12.4 °C 1009.1 hPa Sur 6.7 km/h 9.7 km/h 80% 0.0 mm
07:34 15.9 °C 12.4 °C 1009.1 hPa Sur 6.5 km/h 11.1 km/h 80% 0.0 mm
07:39 15.9 °C 12.4 °C 1009.1 hPa Sur 6.5 km/h 13.7 km/h 79.5% 0.0 mm
07:44 15.9 °C 12.3 °C 1009.3 hPa SSO 6.5 km/h 14.5 km/h 79% 0.0 mm
07:49 15.9 °C 12.3 °C 1009.3 hPa SSO 6.5 km/h 11.3 km/h 79% 0.0 mm
07:54 16 °C 12.3 °C 1009.3 hPa SO 6.4 km/h 9.3 km/h 78.8% 0.0 mm
07:59 16 °C 12.2 °C 1009.5 hPa OSO 5.3 km/h 8.7 km/h 78.1% 0.0 mm
08:04 16.1 °C 12.3 °C 1009.5 hPa OSO 5 km/h 9.7 km/h 78% 0.0 mm
08:09 16.1 °C 12.3 °C 1009.5 hPa OSO 5.6 km/h 10 km/h 78% 0.0 mm
08:14 16 °C 12.2 °C 1009.8 hPa OSO 5.8 km/h 10 km/h 78% 0.0 mm
08:19 16 °C 12.2 °C 1009.8 hPa SO 5.2 km/h 9.7 km/h 78% 0.0 mm
08:24 16.1 °C 12.3 °C 1009.8 hPa SO 5 km/h 9.7 km/h 78% 0.0 mm
08:29 16.1 °C 12.3 °C 1009.9 hPa SO 3.8 km/h 8 km/h 78% 0.0 mm
08:34 16.2 °C 12.3 °C 1009.9 hPa SO 3.2 km/h 6.4 km/h 78% 0.0 mm
08:39 16.3 °C 12.3 °C 1009.9 hPa SO 3 km/h 9.3 km/h 77.1% 0.0 mm
08:44 16.5 °C 12.1 °C 1010.1 hPa SO 2.9 km/h 10 km/h 75.1% 0.0 mm
08:49 16.6 °C 11.6 °C 1010.1 hPa SSO 5.1 km/h 11.9 km/h 72.5% 0.0 mm
08:54 16.7 °C 11.4 °C 1010.1 hPa SO 5.8 km/h 11.3 km/h 70.9% 0.0 mm
08:59 16.9 °C 11.3 °C 1010.3 hPa SO 6.6 km/h 11.9 km/h 69.8% 0.0 mm
09:04 17.1 °C 11.4 °C 1010.3 hPa SO 6.9 km/h 11.3 km/h 68.9% 0.0 mm
09:09 17.2 °C 11.3 °C 1010.3 hPa SO 6.6 km/h 11.3 km/h 68% 0.0 mm
09:14 17.3 °C 11.1 °C 1010.3 hPa SO 6.5 km/h 11.3 km/h 67.1% 0.0 mm
09:19 17.3 °C 11 °C 1010.3 hPa OSO 6.5 km/h 11.9 km/h 66.4% 0.0 mm
09:24 17.5 °C 11 °C 1010.3 hPa SO 6.5 km/h 11.3 km/h 65.7% 0.0 mm
09:29 17.7 °C 10.7 °C 1010.3 hPa SSO 6 km/h 9.5 km/h 63.7% 0.0 mm
09:34 17.8 °C 10.3 °C 1010.3 hPa SO 5.8 km/h 14.8 km/h 61.6% 0.0 mm
09:39 17.8 °C 9.9 °C 1010.3 hPa OSO 6.3 km/h 14.5 km/h 59.7% 0.0 mm
09:44 17.9 °C 9.1 °C 1010.5 hPa Oeste 6.5 km/h 18.5 km/h 56.2% 0.0 mm
09:49 18.1 °C 9 °C 1010.5 hPa ONO 8.6 km/h 19.3 km/h 55.3% 0.0 mm
09:54 18.2 °C 8.9 °C 1010.5 hPa NO 9.5 km/h 16.7 km/h 54.6% 0.0 mm
09:59 18.4 °C 9 °C 1010.5 hPa ONO 8.9 km/h 14.8 km/h 54.5% 0.0 mm
10:04 18.5 °C 8.3 °C 1010.5 hPa Oeste 8.7 km/h 20.4 km/h 51.5% 0.0 mm
10:09 18.5 °C 8.1 °C 1010.5 hPa ONO 9.9 km/h 20.9 km/h 50.9% 0.0 mm
10:14 18.6 °C 7.9 °C 1010.5 hPa Oeste 10.3 km/h 19.3 km/h 49.8% 0.0 mm
10:19 18.7 °C 7.9 °C 1010.5 hPa Oeste 10.3 km/h 20.4 km/h 49.6% 0.0 mm
10:24 18.7 °C 7.9 °C 1010.5 hPa ONO 10.3 km/h 20.9 km/h 49.3% 0.0 mm
10:29 18.8 °C 8.1 °C 1010.6 hPa ONO 10.3 km/h 19.3 km/h 49.7% 0.0 mm
10:34 18.8 °C 8 °C 1010.6 hPa ONO 10.3 km/h 18.5 km/h 49.5% 0.0 mm
10:39 18.9 °C 8.1 °C 1010.6 hPa Oeste 10.1 km/h 19.3 km/h 49.3% 0.0 mm
10:44 19.1 °C 8.2 °C 1010.7 hPa NO 10 km/h 19.3 km/h 49.3% 0.0 mm
10:49 19.1 °C 8 °C 1010.7 hPa SO 9.1 km/h 16.1 km/h 48.5% 0.0 mm
10:54 19.2 °C 7.7 °C 1010.7 hPa SSO 8.7 km/h 14.8 km/h 47.6% 0.0 mm
10:59 19.3 °C 7.7 °C 1010.8 hPa OSO 7.8 km/h 14.5 km/h 47% 0.0 mm
11:04 19.4 °C 7.8 °C 1010.8 hPa Oeste 7.6 km/h 13 km/h 47% 0.0 mm
11:09 19.5 °C 8.1 °C 1010.8 hPa Oeste 6.3 km/h 12.9 km/h 48% 0.0 mm
11:14 19.7 °C 8.2 °C 1010.8 hPa Este 5.8 km/h 12.2 km/h 47.4% 0.0 mm
11:19 19.8 °C 8 °C 1010.8 hPa OSO 6.3 km/h 13 km/h 46.6% 0.0 mm
11:24 19.9 °C 7.4 °C 1010.8 hPa Oeste 6.5 km/h 15.6 km/h 44.4% 0.0 mm
11:29 20 °C 6.9 °C 1011.0 hPa Oeste 6.8 km/h 17.2 km/h 42.5% 0.0 mm
11:34 20.2 °C 6.5 °C 1011.0 hPa OSO 6.9 km/h 17.7 km/h 41.1% 0.0 mm
11:39 20.3 °C 6.7 °C 1011.0 hPa Oeste 8.1 km/h 20.9 km/h 41.3% 0.0 mm
11:44 20.3 °C 6.7 °C 1011.1 hPa NO 8.4 km/h 20.9 km/h 41% 0.0 mm
11:49 20.5 °C 6.8 °C 1011.1 hPa Oeste 9.5 km/h 20.9 km/h 41% 0.0 mm
11:54 20.4 °C 6.6 °C 1011.1 hPa OSO 10 km/h 17.7 km/h 40.6% 0.0 mm
11:59 20.4 °C 6.5 °C 1011.1 hPa Oeste 8.7 km/h 18.5 km/h 40.5% 0.0 mm
12:04 20.5 °C 6.2 °C 1011.0 hPa OSO 8.4 km/h 19.3 km/h 39.4% 0.0 mm
12:09 20.7 °C 6.4 °C 1011.0 hPa Oeste 8.4 km/h 16.1 km/h 39.6% 0.0 mm
12:14 20.8 °C 6.2 °C 1011.0 hPa OSO 8.4 km/h 27.8 km/h 38.6% 0.0 mm
12:19 20.8 °C 6 °C 1010.9 hPa Oeste 9.2 km/h 27.4 km/h 38% 0.0 mm
12:24 20.8 °C 5.9 °C 1010.9 hPa Oeste 9.5 km/h 24.1 km/h 37.8% 0.0 mm
12:29 21 °C 5.8 °C 1011.0 hPa ONO 10.7 km/h 19.3 km/h 37.3% 0.0 mm
12:34 21.1 °C 5.9 °C 1011.0 hPa Oeste 11.1 km/h 24.1 km/h 37.1% 0.0 mm
12:39 21.3 °C 6 °C 1011.0 hPa Sur 9.4 km/h 24.1 km/h 37% 0.0 mm
12:44 21.6 °C 6.1 °C 1011.0 hPa OSO 8.7 km/h 14.5 km/h 36.6% 0.0 mm
12:49 21.7 °C 5.8 °C 1010.8 hPa OSO 7.9 km/h 24.1 km/h 35.7% 0.0 mm
12:54 21.5 °C 5.7 °C 1010.8 hPa OSO 7.6 km/h 24.1 km/h 35.9% 0.0 mm
12:59 21.5 °C 5.8 °C 1010.9 hPa OSO 11.1 km/h 22.2 km/h 36% 0.0 mm
13:04 21.4 °C 5.7 °C 1010.9 hPa SO 12.2 km/h 19.3 km/h 36% 0.0 mm
13:09 21.3 °C 5.7 °C 1010.9 hPa SO 10.6 km/h 19.3 km/h 36% 0.0 mm
13:14 21.5 °C 5.8 °C 1010.9 hPa OSO 10 km/h 18.3 km/h 36% 0.0 mm
13:19 21.6 °C 5.6 °C 1010.9 hPa SO 9.1 km/h 22.2 km/h 35.5% 0.0 mm
13:24 21.5 °C 5.7 °C 1010.9 hPa NO 8.7 km/h 22.5 km/h 35.9% 0.0 mm
13:29 21.7 °C 5.9 °C 1010.9 hPa NNO 7.3 km/h 11.3 km/h 36% 0.0 mm
13:34 21.8 °C 5.9 °C 1010.9 hPa SO 6.9 km/h 15.6 km/h 35.6% 0.0 mm
13:39 21.8 °C 5.8 °C 1010.9 hPa OSO 6.9 km/h 18 km/h 35.3% 0.0 mm
13:44 21.7 °C 5.8 °C 1010.9 hPa ONO 6.9 km/h 19.3 km/h 35.4% 0.0 mm
13:49 21.7 °C 5.7 °C 1010.9 hPa ONO 7.4 km/h 19.3 km/h 35.4% 0.0 mm
13:54 21.8 °C 5.7 °C 1010.9 hPa ONO 7.6 km/h 11.3 km/h 35% 0.0 mm
13:59 22 °C 5.8 °C 1010.9 hPa NNE 6.3 km/h 11.3 km/h 35% 0.0 mm
14:04 22.3 °C 5.9 °C 1010.6 hPa Sur 5.8 km/h 14.8 km/h 34.5% 0.0 mm
14:09 22.4 °C 5.8 °C 1010.6 hPa Este 5.2 km/h 14.5 km/h 34% 0.0 mm
14:14 22.5 °C 5.6 °C 1010.6 hPa Sur 5 km/h 14.8 km/h 33.5% 0.0 mm
14:19 22.4 °C 5.8 °C 1010.6 hPa SSE 6.4 km/h 13 km/h 34% 0.0 mm
14:24 22.4 °C 5.6 °C 1010.6 hPa Oeste 6.9 km/h 19 km/h 33.5% 0.0 mm
14:29 22.3 °C 5.3 °C 1010.6 hPa ONO 9.3 km/h 19.3 km/h 33% 0.0 mm
14:34 22.3 °C 5.3 °C 1010.4 hPa Oeste 10 km/h 19.3 km/h 33% 0.0 mm
14:39 22.4 °C 5.4 °C 1010.4 hPa OSO 10 km/h 19.3 km/h 33% 0.0 mm
14:44 22.6 °C 5.5 °C 1010.4 hPa SO 10 km/h 11.3 km/h 33% 0.0 mm
14:49 22.9 °C 5.8 °C 1010.3 hPa ESE 6.6 km/h 11.9 km/h 33% 0.0 mm
14:54 23.2 °C 5.7 °C 1010.3 hPa ESE 5 km/h 15.6 km/h 32.1% 0.0 mm
14:59 23.2 °C 5.2 °C 1010.3 hPa Oeste 6.1 km/h 17.2 km/h 31% 0.0 mm
15:04 23.2 °C 5.3 °C 1010.2 hPa SO 6.5 km/h 20.1 km/h 31.4% 0.0 mm
15:09 23.3 °C 5.2 °C 1010.2 hPa SO 9.8 km/h 22.2 km/h 31% 0.0 mm
15:14 23.1 °C 5 °C 1010.2 hPa SSO 11.1 km/h 14.8 km/h 31% 0.0 mm
15:19 22.9 °C 5.3 °C 1010.2 hPa Sur 9.2 km/h 14.5 km/h 32% 0.0 mm
15:24 23.2 °C 5.3 °C 1010.2 hPa OSO 8.4 km/h 15.6 km/h 31.4% 0.0 mm
15:29 23.2 °C 5.2 °C 1010.2 hPa SO 8.4 km/h 16.1 km/h 31.2% 0.0 mm
15:34 23.1 °C 5.7 °C 1010.0 hPa Sur 8.4 km/h 11.3 km/h 32.5% 0.0 mm
15:39 23.2 °C 5.8 °C 1010.0 hPa NNO 5.2 km/h 11.9 km/h 32.5% 0.0 mm
15:44 23.3 °C 6.2 °C 1010.0 hPa NNE 3.9 km/h 13 km/h 33.2% 0.0 mm
15:49 23.2 °C 6.7 °C 1010.0 hPa Sur 5.6 km/h 13 km/h 34.7% 0.0 mm
15:54 23.2 °C 6 °C 1010.0 hPa SO 6.5 km/h 12.9 km/h 33% 0.0 mm
15:59 22.9 °C 6.4 °C 1010.0 hPa Sur 5.3 km/h 11.3 km/h 34.4% 0.0 mm
16:04 22.9 °C 6.9 °C 1009.8 hPa SE 5 km/h 14.8 km/h 35.8% 0.0 mm
16:09 22.9 °C 7 °C 1009.8 hPa ESE 6.4 km/h 14.8 km/h 35.9% 0.0 mm
16:14 22.8 °C 7 °C 1009.8 hPa Este 6.9 km/h 18.5 km/h 36% 0.0 mm
16:19 22.8 °C 7 °C 1009.7 hPa NE 8.9 km/h 19.3 km/h 36.2% 0.0 mm
16:24 22.7 °C 7.3 °C 1009.7 hPa ENE 9.5 km/h 14.8 km/h 37.2% 0.0 mm
16:29 22.8 °C 8 °C 1009.7 hPa SE 7.7 km/h 18.5 km/h 38.7% 0.0 mm
16:34 22.9 °C 8.2 °C 1009.6 hPa SE 6.9 km/h 25.9 km/h 39% 0.0 mm
16:39 22.7 °C 8.3 °C 1009.6 hPa SE 11.4 km/h 30.6 km/h 39.8% 0.0 mm
16:44 22.8 °C 8.4 °C 1009.6 hPa SE 13 km/h 25.9 km/h 39.9% 0.0 mm
16:49 22.8 °C 8.2 °C 1009.5 hPa SE 13.7 km/h 25.7 km/h 39.3% 0.0 mm
16:54 22.8 °C 8.4 °C 1009.5 hPa SE 14 km/h 24.1 km/h 39.8% 0.0 mm
16:59 22.9 °C 8.2 °C 1009.5 hPa SSE 13.2 km/h 24.1 km/h 39% 0.0 mm
17:04 22.8 °C 8.4 °C 1009.5 hPa SSE 13 km/h 26.2 km/h 39.9% 0.0 mm
17:09 22.7 °C 8.4 °C 1009.5 hPa SE 15.1 km/h 28.2 km/h 40.1% 0.0 mm
17:14 22.8 °C 8.3 °C 1009.5 hPa SSE 15.6 km/h 27.8 km/h 39.4% 0.0 mm
17:19 22.8 °C 8.4 °C 1009.4 hPa ESE 13.6 km/h 27.4 km/h 39.7% 0.0 mm
17:24 22.9 °C 8.2 °C 1009.4 hPa SE 13 km/h 20.9 km/h 39% 0.0 mm
17:29 23 °C 8.1 °C 1009.4 hPa SSE 12.4 km/h 27.8 km/h 38.5% 0.0 mm
17:34 23.1 °C 8 °C 1009.4 hPa SE 12.2 km/h 27.4 km/h 38.1% 0.0 mm
17:39 23.1 °C 7.9 °C 1009.4 hPa SE 13.5 km/h 22.5 km/h 37.8% 0.0 mm
17:44 23 °C 7.6 °C 1009.4 hPa SSE 14 km/h 24.1 km/h 37.2% 0.0 mm
17:49 22.9 °C 7.6 °C 1009.4 hPa Sur 14 km/h 24.1 km/h 37.3% 0.0 mm
17:54 23.1 °C 7.6 °C 1009.4 hPa Sur 14 km/h 19.3 km/h 37% 0.0 mm
17:59 23.3 °C 7.7 °C 1009.5 hPa ONO 9.6 km/h 11.1 km/h 36.7% 0.0 mm
18:04 23.4 °C 7.7 °C 1009.5 hPa Sur 8.4 km/h 11.9 km/h 36.5% 0.0 mm
18:09 23.6 °C 7.7 °C 1009.5 hPa ESE 7.2 km/h 11.3 km/h 36.2% 0.0 mm
18:14 23.5 °C 7.8 °C 1009.6 hPa SE 6.9 km/h 22 km/h 36.5% 0.0 mm
18:19 23.3 °C 7.9 °C 1009.6 hPa SSE 9 km/h 22.5 km/h 37.3% 0.0 mm
18:24 23.2 °C 8.1 °C 1009.6 hPa ESE 9.5 km/h 25.9 km/h 38.1% 0.0 mm
18:29 23.2 °C 8.2 °C 1009.6 hPa SE 13.3 km/h 25.7 km/h 38.4% 0.0 mm
18:34 23.1 °C 8 °C 1009.5 hPa SE 14.8 km/h 23.3 km/h 38% 0.0 mm
18:39 22.9 °C 7.9 °C 1009.5 hPa SSE 13.4 km/h 24.5 km/h 38.3% 0.0 mm
18:44 22.8 °C 8.1 °C 1009.8 hPa SE 13 km/h 24.1 km/h 38.9% 0.0 mm
18:49 22.8 °C 8.1 °C 1009.8 hPa SE 13.7 km/h 25.9 km/h 39% 0.0 mm
18:54 22.7 °C 8.2 °C 1009.8 hPa SE 14 km/h 25.7 km/h 39.5% 0.0 mm
18:59 22.7 °C 8.1 °C 1009.9 hPa SE 13.8 km/h 22.2 km/h 39.3% 0.0 mm
19:04 22.5 °C 7.9 °C 1009.9 hPa ESE 13.7 km/h 22.5 km/h 39% 0.0 mm
19:09 22.4 °C 7.9 °C 1009.9 hPa ESE 13.9 km/h 22.5 km/h 39.4% 0.0 mm
19:14 22.3 °C 8.3 °C 1010.0 hPa ESE 14 km/h 20.9 km/h 40.4% 0.0 mm
19:19 22.4 °C 8.5 °C 1010.0 hPa ESE 11.1 km/h 16.1 km/h 41% 0.0 mm
19:24 22.4 °C 8.5 °C 1010.0 hPa ESE 10 km/h 21.7 km/h 41.1% 0.0 mm
19:29 22.3 °C 8.4 °C 1010.2 hPa ESE 11.4 km/h 22.5 km/h 41% 0.0 mm
19:34 22.2 °C 8.3 °C 1010.2 hPa SE 11.9 km/h 22.5 km/h 41% 0.0 mm
19:39 22.1 °C 8.2 °C 1010.2 hPa SE 13.2 km/h 27.8 km/h 41% 0.0 mm
19:44 22 °C 8.3 °C 1010.3 hPa SE 13.7 km/h 29.8 km/h 41.6% 0.0 mm
19:49 21.8 °C 8.3 °C 1010.3 hPa SE 15.6 km/h 30.6 km/h 42% 0.0 mm
19:54 21.8 °C 8.3 °C 1010.3 hPa SE 16.1 km/h 27.4 km/h 42% 0.0 mm
19:59 21.7 °C 8.2 °C 1010.5 hPa SE 16.1 km/h 24.5 km/h 42% 0.0 mm
20:04 21.6 °C 8.5 °C 1010.5 hPa SSE 16.1 km/h 29.6 km/h 43.1% 0.0 mm
20:09 21.3 °C 8.6 °C 1010.5 hPa SE 16.1 km/h 29 km/h 44% 0.0 mm
20:14 21.2 °C 8.7 °C 1010.6 hPa SSE 16.1 km/h 24.1 km/h 44.8% 0.0 mm
20:19 21 °C 8.4 °C 1010.6 hPa SE 16.9 km/h 29.6 km/h 44.6% 0.0 mm
20:24 20.8 °C 8.4 °C 1010.6 hPa SSE 17.2 km/h 29 km/h 45% 0.0 mm
20:29 20.7 °C 8.3 °C 1010.9 hPa SSE 17.2 km/h 27.4 km/h 44.9% 0.0 mm
20:34 20.7 °C 8.1 °C 1010.9 hPa SSE 17.2 km/h 24.1 km/h 44.4% 0.0 mm
20:39 20.6 °C 7.9 °C 1010.9 hPa SSE 13.7 km/h 19.3 km/h 44% 0.0 mm
20:44 20.6 °C 7.9 °C 1011.2 hPa SSE 12.2 km/h 17.7 km/h 44% 0.0 mm
20:49 20.6 °C 7.7 °C 1011.2 hPa SSE 10.8 km/h 14.8 km/h 43.4% 0.0 mm
20:54 20.6 °C 7.3 °C 1011.2 hPa SSE 10.3 km/h 19.8 km/h 42.1% 0.0 mm
20:59 20.6 °C 7.2 °C 1011.5 hPa SSE 9.7 km/h 20.9 km/h 42% 0.0 mm
21:04 20.5 °C 7.1 °C 1011.5 hPa SSE 9.5 km/h 20.9 km/h 42% 0.0 mm
21:09 20.4 °C 7.1 °C 1011.5 hPa SSE 8.9 km/h 19.3 km/h 42% 0.0 mm
21:14 20.4 °C 7.1 °C 1011.6 hPa Sur 8.7 km/h 16.1 km/h 42% 0.0 mm
21:19 20.3 °C 6.7 °C 1011.6 hPa SSE 7.8 km/h 12.9 km/h 41.4% 0.0 mm
21:24 20.3 °C 6.4 °C 1011.6 hPa Sur 7.6 km/h 14.8 km/h 40.4% 0.0 mm
21:29 20.3 °C 6.2 °C 1011.9 hPa Sur 8.4 km/h 13 km/h 40% 0.0 mm
21:34 20.4 °C 6.1 °C 1011.9 hPa SSO 8.7 km/h 12.9 km/h 39.2% 0.0 mm
21:39 20.4 °C 5.7 °C 1011.9 hPa Sur 7.3 km/h 15.6 km/h 38.1% 0.0 mm
21:44 20.6 °C 5.6 °C 1011.9 hPa Sur 6.9 km/h 16.1 km/h 37.5% 0.0 mm
21:49 20.7 °C 5.4 °C 1011.9 hPa SSE 7.4 km/h 13.7 km/h 37% 0.0 mm
21:54 20.7 °C 5.5 °C 1011.9 hPa SO 7.6 km/h 14.5 km/h 37.1% 0.0 mm
21:59 20.7 °C 6.1 °C 1012.3 hPa NO 5.3 km/h 10 km/h 38.5% 0.0 mm
22:04 20.5 °C 6.7 °C 1012.3 hPa North 4.6 km/h 9.7 km/h 40.7% 0.0 mm
22:09 20.2 °C 7.1 °C 1012.3 hPa North 4.9 km/h 9.7 km/h 42.5% 0.0 mm
22:14 20 °C 7.2 °C 1012.4 hPa North 5 km/h 8 km/h 43.5% 0.0 mm
22:19 19.8 °C 7.3 °C 1012.4 hPa North 4.1 km/h 8 km/h 44.2% 0.0 mm
22:24 19.7 °C 7.4 °C 1012.4 hPa North 3.9 km/h 7.6 km/h 45% 0.0 mm
22:29 19.6 °C 7.5 °C 1012.7 hPa NE 3.9 km/h 9.5 km/h 45.7% 0.0 mm
22:34 19.4 °C 7.7 °C 1012.7 hPa NE 3.9 km/h 9.7 km/h 46.7% 0.0 mm
22:39 19.3 °C 8 °C 1012.7 hPa NE 4.7 km/h 8 km/h 47.8% 0.0 mm
Murcia-Puente Tocinos, España
Compliments of Weather Underground - 2.75 mb

La estación de MeteoMurcia.com, publica sus datos en los siguientes proyectos:

Weather Underground PWS IMURCIAP2 Meteoclimatic www.awekas.at

W3Counter
Web Analytics